Time;durP1;ratioP1;P1;durP2;ratioP2;P2;SDS_P1;SDS_P2;PMS_P1;PMS_P2;Temp;Humidity;BMP_temperature;BMP_pressure;BME280_temperature;BME280_humidity;BME280_pressure;Samples;Min_cycle;Max_cycle;Signal;HPM_P1;HPM_P2
2021/07/31 00:00:14;;;;;;;22.98;5.72;;;16.60;83.30;;;;;;5023991;28;20042;-73
2021/07/31 00:02:40;;;;;;;20.85;6.32;;;16.60;83.30;;;;;;5026613;28;20040;-72
2021/07/31 00:05:06;;;;;;;22.33;5.90;;;16.60;83.40;;;;;;5023919;28;20030;-74
2021/07/31 00:07:32;;;;;;;16.92;5.68;;;16.60;83.40;;;;;;5021907;28;20021;-72
2021/07/31 00:09:58;;;;;;;17.23;5.45;;;16.60;83.00;;;;;;5027648;28;20476;-72
2021/07/31 00:12:23;;;;;;;16.77;5.65;;;16.60;83.10;;;;;;5019030;28;20045;-73
2021/07/31 00:14:49;;;;;;;17.45;5.65;;;16.60;83.30;;;;;;5024359;28;20026;-72
2021/07/31 00:17:14;;;;;;;18.65;5.93;;;16.60;83.30;;;;;;5026294;28;20121;-73
2021/07/31 00:19:40;;;;;;;20.27;5.82;;;16.60;83.10;;;;;;5026096;28;20039;-73
2021/07/31 00:22:06;;;;;;;18.58;6.13;;;16.60;83.00;;;;;;5011198;28;20125;-73
2021/07/31 00:24:31;;;;;;;17.23;5.35;;;16.50;83.20;;;;;;5012473;28;20346;-75
2021/07/31 00:26:57;;;;;;;19.00;6.32;;;16.50;83.30;;;;;;5008283;28;20389;-73
2021/07/31 00:29:23;;;;;;;18.23;6.00;;;16.50;83.30;;;;;;5007454;28;20038;-73
2021/07/31 00:31:49;;;;;;;20.38;7.57;;;16.50;83.20;;;;;;5002627;28;20077;-78
2021/07/31 00:34:14;;;;;;;16.65;5.90;;;16.50;83.10;;;;;;5013557;28;20091;-73
2021/07/31 00:36:40;;;;;;;18.10;5.57;;;16.40;83.40;;;;;;5013708;28;20034;-72
2021/07/31 00:39:06;;;;;;;21.15;6.13;;;16.30;83.50;;;;;;5007973;28;20053;-72
2021/07/31 00:41:31;;;;;;;18.52;6.82;;;16.40;83.40;;;;;;5004648;28;20033;-76
2021/07/31 00:43:57;;;;;;;17.90;6.30;;;16.30;83.40;;;;;;4991878;28;20034;-74
2021/07/31 00:46:23;;;;;;;16.58;5.63;;;16.40;83.30;;;;;;5000805;28;20030;-72
2021/07/31 00:48:49;;;;;;;17.48;6.30;;;16.30;83.30;;;;;;5008548;28;20499;-72
2021/07/31 00:51:16;;;;;;;18.38;5.95;;;16.20;83.30;;;;;;4994480;28;20426;-74
2021/07/31 00:53:44;;;;;;;13.05;5.60;;;16.10;83.40;;;;;;5015928;28;20515;-72
2021/07/31 00:56:11;;;;;;;19.90;6.55;;;16.20;83.50;;;;;;5019680;28;20072;-72
2021/07/31 00:58:37;;;;;;;16.02;6.05;;;16.10;83.30;;;;;;5015097;28;20044;-73
2021/07/31 01:01:03;;;;;;;14.23;5.78;;;16.20;83.20;;;;;;4997337;28;20424;-75
2021/07/31 01:03:28;;;;;;;18.45;6.18;;;16.20;83.40;;;;;;5003074;28;20073;-72
2021/07/31 01:05:54;;;;;;;20.73;7.25;;;16.20;83.30;;;;;;5001493;28;20061;-73
2021/07/31 01:08:20;;;;;;;13.88;6.20;;;16.20;83.20;;;;;;5007773;28;20096;-72
2021/07/31 01:10:46;;;;;;;17.90;5.55;;;16.20;83.40;;;;;;5012445;28;20496;-73
2021/07/31 01:13:12;;;;;;;14.18;5.80;;;16.20;83.20;;;;;;5013711;28;20038;-72
2021/07/31 01:15:59;;;;;;;16.55;5.45;;;16.30;83.00;;;;;;5005131;28;20471;-73
2021/07/31 01:18:25;;;;;;;13.93;5.85;;;16.20;83.20;;;;;;5017844;28;20037;-74
2021/07/31 01:20:50;;;;;;;12.85;5.32;;;16.20;83.10;;;;;;5021821;28;20042;-73
2021/07/31 01:23:16;;;;;;;17.15;5.43;;;16.20;83.10;;;;;;5028170;28;20041;-73
2021/07/31 01:25:42;;;;;;;13.50;5.15;;;16.20;83.00;;;;;;5030581;28;20025;-73
2021/07/31 01:28:07;;;;;;;14.98;5.38;;;16.20;83.10;;;;;;5032305;28;20029;-72
2021/07/31 01:30:33;;;;;;;19.55;5.80;;;16.20;83.10;;;;;;5016950;28;20366;-72
2021/07/31 01:32:59;;;;;;;17.90;6.15;;;16.30;83.10;;;;;;5027238;28;20053;-73
2021/07/31 01:35:24;;;;;;;13.13;5.00;;;16.30;83.10;;;;;;5028592;28;20466;-72
2021/07/31 01:37:50;;;;;;;15.13;5.00;;;16.30;83.00;;;;;;5034059;28;20050;-72
2021/07/31 01:40:16;;;;;;;13.25;5.32;;;16.30;83.00;;;;;;5027065;28;20025;-73
2021/07/31 01:42:43;;;;;;;12.23;4.78;;;16.30;82.90;;;;;;5017924;28;20030;-76
2021/07/31 01:45:09;;;;;;;14.63;4.53;;;16.30;83.00;;;;;;5027886;28;20121;-74
2021/07/31 01:47:35;;;;;;;13.50;4.50;;;16.30;82.90;;;;;;5027586;28;20021;-74
2021/07/31 01:50:01;;;;;;;14.25;4.35;;;16.30;83.10;;;;;;5031811;28;20068;-74
2021/07/31 01:52:26;;;;;;;10.75;4.40;;;16.30;83.10;;;;;;5028762;28;20034;-72
2021/07/31 01:54:52;;;;;;;11.00;4.80;;;16.30;82.80;;;;;;5035554;28;20036;-75
2021/07/31 01:57:18;;;;;;;15.30;4.90;;;16.30;82.70;;;;;;5033827;28;20037;-72
2021/07/31 01:59:44;;;;;;;12.73;5.05;;;16.30;82.50;;;;;;5036015;28;20029;-72
2021/07/31 02:02:09;;;;;;;12.65;4.68;;;16.30;82.80;;;;;;5033700;28;20042;-74
2021/07/31 02:04:35;;;;;;;13.40;5.30;;;16.20;83.00;;;;;;5022831;28;20441;-73
2021/07/31 02:07:01;;;;;;;13.52;5.72;;;16.20;83.20;;;;;;5027933;28;20475;-74
2021/07/31 02:09:28;;;;;;;14.00;5.82;;;16.20;83.10;;;;;;5023046;28;20046;-72
2021/07/31 02:11:54;;;;;;;12.98;5.30;;;16.20;83.10;;;;;;5012905;28;20045;-76
2021/07/31 02:14:20;;;;;;;16.42;5.32;;;16.10;83.30;;;;;;5003390;28;20030;-72
2021/07/31 02:16:45;;;;;;;13.00;4.80;;;16.10;83.40;;;;;;5006257;28;20025;-72
2021/07/31 02:19:11;;;;;;;11.45;4.97;;;16.10;83.40;;;;;;5003977;28;20092;-76
2021/07/31 02:21:37;;;;;;;12.65;5.10;;;16.00;83.80;;;;;;5006810;28;20388;-72
2021/07/31 02:24:03;;;;;;;13.45;4.90;;;16.00;83.90;;;;;;5006387;28;20053;-75
2021/07/31 02:26:28;;;;;;;14.90;4.80;;;15.90;84.10;;;;;;5012271;28;20034;-72
2021/07/31 02:28:54;;;;;;;13.35;4.60;;;15.90;84.20;;;;;;5009301;28;20029;-74
2021/07/31 02:31:20;;;;;;;13.18;4.72;;;15.80;84.40;;;;;;5000635;28;20173;-73
2021/07/31 02:33:45;;;;;;;10.60;4.25;;;15.80;84.70;;;;;;5010695;28;20064;-72
2021/07/31 02:36:11;;;;;;;11.77;4.47;;;15.70;84.70;;;;;;5007124;28;20551;-72
2021/07/31 02:38:37;;;;;;;12.55;4.88;;;15.70;84.80;;;;;;5012076;28;20048;-72
2021/07/31 02:41:04;;;;;;;16.15;4.78;;;15.60;85.10;;;;;;5009487;28;20037;-74
2021/07/31 02:43:29;;;;;;;14.55;5.15;;;15.60;85.00;;;;;;5007513;28;20026;-72
2021/07/31 02:45:55;;;;;;;13.70;5.18;;;15.60;85.30;;;;;;5011033;28;20443;-72
2021/07/31 02:48:21;;;;;;;13.60;5.05;;;15.60;85.30;;;;;;5003691;28;20038;-74
2021/07/31 02:50:47;;;;;;;15.85;6.22;;;15.60;85.40;;;;;;5003569;28;20026;-73
2021/07/31 02:53:12;;;;;;;15.98;6.07;;;15.60;85.40;;;;;;4997241;28;20490;-73
2021/07/31 02:55:38;;;;;;;16.15;6.03;;;15.60;85.50;;;;;;5025723;28;20044;-72
2021/07/31 02:58:04;;;;;;;13.50;5.75;;;15.60;85.50;;;;;;5021728;28;20461;-76
2021/07/31 03:00:29;;;;;;;14.27;6.50;;;15.60;85.50;;;;;;5030584;28;20033;-72
2021/07/31 03:02:55;;;;;;;15.02;4.93;;;15.60;85.60;;;;;;5025096;28;20124;-78
2021/07/31 03:05:20;;;;;;;15.70;5.97;;;15.60;85.70;;;;;;5024228;28;20594;-72
2021/07/31 03:07:46;;;;;;;16.52;6.13;;;15.60;85.90;;;;;;5031695;28;20087;-72
2021/07/31 03:10:13;;;;;;;17.17;5.57;;;15.50;86.10;;;;;;5024093;28;20036;-72
2021/07/31 03:12:39;;;;;;;15.18;5.65;;;15.60;86.00;;;;;;5030332;28;20087;-75
2021/07/31 03:15:05;;;;;;;18.55;6.40;;;15.60;85.90;;;;;;5025830;28;20034;-72
2021/07/31 03:17:31;;;;;;;15.15;6.45;;;15.50;86.00;;;;;;5024753;28;20387;-72
2021/07/31 03:19:56;;;;;;;17.55;6.88;;;15.50;86.10;;;;;;5021245;28;20029;-72
2021/07/31 03:22:22;;;;;;;17.58;5.45;;;15.50;86.20;;;;;;5024754;28;20038;-73
2021/07/31 03:24:48;;;;;;;19.17;7.05;;;15.50;86.30;;;;;;5028760;28;20422;-72
2021/07/31 03:27:13;;;;;;;18.75;6.80;;;15.50;86.30;;;;;;5021694;28;20361;-77
2021/07/31 03:29:39;;;;;;;14.88;6.55;;;15.40;86.40;;;;;;5030396;28;20401;-72
2021/07/31 03:32:05;;;;;;;18.83;6.25;;;15.40;86.60;;;;;;5024742;28;20045;-73
2021/07/31 03:34:31;;;;;;;17.33;6.43;;;15.40;86.80;;;;;;5025073;28;20065;-73
2021/07/31 03:36:57;;;;;;;17.48;6.57;;;15.40;86.90;;;;;;5029591;28;20084;-72
2021/07/31 03:39:24;;;;;;;22.15;6.90;;;15.40;87.10;;;;;;5025044;28;20029;-71
2021/07/31 03:41:51;;;;;;;17.55;6.10;;;15.40;86.90;;;;;;5022949;28;20412;-72
2021/07/31 03:44:17;;;;;;;18.17;7.10;;;15.30;87.00;;;;;;5025394;28;20232;-72
2021/07/31 03:46:46;;;;;;;14.35;6.32;;;15.30;87.10;;;;;;5025516;28;20516;-72
2021/07/31 03:49:13;;;;;;;17.45;5.80;;;15.30;87.40;;;;;;5025996;28;20022;-71
2021/07/31 03:51:39;;;;;;;17.25;6.28;;;15.30;87.40;;;;;;5020666;28;20093;-71
2021/07/31 03:54:05;;;;;;;18.90;6.25;;;15.30;87.30;;;;;;5019717;28;20461;-73
2021/07/31 03:56:32;;;;;;;22.85;7.80;;;15.30;87.30;;;;;;5024146;28;20025;-74
2021/07/31 03:58:57;;;;;;;17.50;7.03;;;15.20;87.40;;;;;;5022305;28;20330;-72
2021/07/31 04:01:24;;;;;;;15.00;6.05;;;15.20;87.60;;;;;;5023263;28;20079;-72
2021/07/31 04:03:51;;;;;;;16.73;6.63;;;15.20;87.60;;;;;;5022464;28;20041;-71
2021/07/31 04:06:16;;;;;;;18.10;6.20;;;15.20;87.70;;;;;;5025038;28;20040;-71
2021/07/31 04:08:42;;;;;;;18.75;6.10;;;15.30;87.70;;;;;;5029548;28;20025;-72
2021/07/31 04:11:08;;;;;;;16.10;6.88;;;15.30;87.60;;;;;;5021243;28;20065;-71
2021/07/31 04:13:33;;;;;;;18.95;6.35;;;15.20;87.50;;;;;;5021175;28;20034;-74
2021/07/31 04:16:00;;;;;;;16.00;6.13;;;15.30;87.60;;;;;;5023478;28;20048;-72
2021/07/31 04:18:25;;;;;;;15.00;6.35;;;15.20;87.50;;;;;;5024006;28;20448;-71
2021/07/31 04:20:51;;;;;;;17.05;6.15;;;15.10;87.80;;;;;;5020702;28;20022;-71
2021/07/31 04:23:17;;;;;;;15.70;6.95;;;15.10;88.00;;;;;;4995688;28;20046;-71
2021/07/31 04:25:43;;;;;;;19.70;6.75;;;15.10;88.00;;;;;;5000046;28;20034;-71
2021/07/31 04:28:08;;;;;;;17.13;7.10;;;15.10;88.00;;;;;;5000985;28;20209;-76
2021/07/31 04:30:36;;;;;;;15.70;6.80;;;15.10;88.00;;;;;;5024505;28;20057;-71
2021/07/31 04:33:01;;;;;;;14.50;6.68;;;15.20;88.00;;;;;;5022556;28;20079;-72
2021/07/31 04:35:27;;;;;;;17.15;6.80;;;15.30;88.00;;;;;;5022411;28;20038;-71
2021/07/31 04:37:53;;;;;;;16.08;6.63;;;15.30;87.90;;;;;;5024074;28;20038;-71
2021/07/31 04:40:19;;;;;;;17.55;7.13;;;15.30;87.80;;;;;;5023484;28;20048;-72
2021/07/31 04:42:44;;;;;;;15.45;6.88;;;15.40;87.70;;;;;;5029566;28;20033;-72
2021/07/31 04:45:10;;;;;;;16.70;7.13;;;15.50;87.60;;;;;;5026189;28;20411;-76
2021/07/31 04:47:37;;;;;;;18.90;7.50;;;15.60;87.40;;;;;;5031002;28;20353;-72
2021/07/31 04:50:05;;;;;;;12.88;6.35;;;15.50;87.30;;;;;;5025385;28;20039;-71
2021/07/31 04:52:30;;;;;;;14.85;6.68;;;15.60;87.50;;;;;;5025579;28;20053;-72
2021/07/31 04:54:56;;;;;;;15.30;6.72;;;15.60;87.30;;;;;;5028989;28;20453;-70
2021/07/31 04:57:21;;;;;;;16.95;6.97;;;15.60;87.30;;;;;;5028082;28;20108;-71
2021/07/31 04:59:47;;;;;;;16.10;6.75;;;15.60;87.20;;;;;;5038643;28;20163;-72
2021/07/31 05:02:12;;;;;;;18.77;6.97;;;15.60;87.10;;;;;;5001908;28;20454;-72
2021/07/31 05:04:38;;;;;;;15.57;6.93;;;15.70;87.10;;;;;;5016234;28;20076;-71
2021/07/31 05:07:04;;;;;;;20.85;7.85;;;15.70;87.00;;;;;;5012138;28;20045;-71
2021/07/31 05:09:29;;;;;;;17.50;7.22;;;15.70;87.00;;;;;;5014258;28;20061;-72
2021/07/31 05:11:55;;;;;;;15.55;6.70;;;15.80;86.90;;;;;;5014309;28;20034;-71
2021/07/31 05:14:21;;;;;;;14.18;6.97;;;15.90;86.80;;;;;;5004165;28;20037;-73
2021/07/31 05:16:47;;;;;;;13.02;6.40;;;15.90;86.50;;;;;;5008231;28;20029;-71
2021/07/31 05:19:12;;;;;;;17.08;6.93;;;15.80;86.40;;;;;;5008401;28;21424;-71
2021/07/31 05:21:38;;;;;;;20.90;6.82;;;16.00;86.40;;;;;;5010576;28;20050;-73
2021/07/31 05:24:04;;;;;;;14.77;6.78;;;16.10;85.90;;;;;;5007572;28;20045;-73
2021/07/31 05:26:30;;;;;;;15.18;5.88;;;16.30;85.90;;;;;;5005114;28;20042;-75
2021/07/31 05:28:56;;;;;;;18.30;6.65;;;17.20;83.30;;;;;;5004853;28;20034;-72
2021/07/31 05:31:22;;;;;;;15.07;4.90;;;18.20;78.80;;;;;;4995154;28;20057;-71
2021/07/31 05:33:48;;;;;;;13.40;4.90;;;19.10;75.60;;;;;;5004190;28;20022;-73
2021/07/31 05:36:14;;;;;;;12.02;4.20;;;19.90;72.50;;;;;;4999837;28;20085;-73
2021/07/31 05:38:39;;;;;;;12.13;4.20;;;20.60;70.30;;;;;;5003312;28;20061;-73
2021/07/31 05:41:05;;;;;;;10.98;4.43;;;21.10;68.20;;;;;;4992126;28;20046;-78
2021/07/31 05:43:31;;;;;;;14.43;4.70;;;21.50;65.50;;;;;;4999433;28;20061;-72
2021/07/31 05:45:56;;;;;;;9.95;3.90;;;20.70;66.80;;;;;;5000398;28;20058;-74
2021/07/31 05:48:22;;;;;;;12.43;5.13;;;20.00;69.10;;;;;;5002026;28;20034;-72
2021/07/31 05:50:48;;;;;;;9.98;4.60;;;19.30;71.40;;;;;;4996386;28;20054;-72
2021/07/31 05:53:13;;;;;;;11.82;4.95;;;18.80;73.90;;;;;;5008967;28;20045;-74
2021/07/31 05:55:39;;;;;;;11.13;5.18;;;19.10;73.10;;;;;;5003570;28;20041;-72
2021/07/31 05:58:05;;;;;;;15.38;5.03;;;19.60;71.60;;;;;;5006478;28;20026;-73
2021/07/31 06:00:30;;;;;;;10.90;4.80;;;20.30;69.20;;;;;;4995477;28;20038;-72
2021/07/31 06:02:56;;;;;;;12.82;4.68;;;20.50;68.40;;;;;;5004591;28;20116;-72
2021/07/31 06:05:21;;;;;;;11.98;4.22;;;20.30;68.30;;;;;;5003000;28;20065;-72
2021/07/31 06:07:47;;;;;;;14.40;5.13;;;20.00;69.80;;;;;;5016848;28;20134;-73
2021/07/31 06:10:13;;;;;;;9.88;4.75;;;19.30;71.60;;;;;;4997403;28;20081;-72
2021/07/31 06:12:38;;;;;;;12.00;4.90;;;18.70;74.00;;;;;;5002223;28;20532;-72
2021/07/31 06:15:05;;;;;;;13.27;5.50;;;18.40;75.50;;;;;;5007140;28;20071;-72
2021/07/31 06:17:30;;;;;;;14.27;5.75;;;18.20;76.30;;;;;;5005164;28;20040;-73
2021/07/31 06:19:56;;;;;;;15.32;5.43;;;18.00;77.10;;;;;;5007805;28;20039;-72
2021/07/31 06:22:22;;;;;;;13.93;5.97;;;17.90;77.00;;;;;;4994514;28;20914;-68
2021/07/31 06:24:48;;;;;;;11.52;5.22;;;17.70;77.80;;;;;;5007914;28;20089;-70
2021/07/31 06:27:14;;;;;;;13.65;5.70;;;17.80;78.30;;;;;;4997640;28;20088;-69
2021/07/31 06:29:40;;;;;;;16.27;5.70;;;18.00;77.80;;;;;;5003694;28;20053;-72
2021/07/31 06:32:06;;;;;;;17.42;5.18;;;18.10;77.80;;;;;;5001048;28;20034;-70
2021/07/31 06:34:32;;;;;;;11.48;5.15;;;18.20;77.10;;;;;;4996452;28;20044;-69
2021/07/31 06:36:58;;;;;;;11.40;5.30;;;18.30;76.60;;;;;;5000559;28;20620;-70
2021/07/31 06:39:25;;;;;;;8.25;4.50;;;18.40;75.80;;;;;;5000029;28;20044;-69
2021/07/31 06:41:51;;;;;;;14.50;5.07;;;18.40;76.40;;;;;;4995327;28;20026;-68
2021/07/31 06:44:17;;;;;;;10.27;4.28;;;18.60;75.60;;;;;;4996566;28;20429;-70
2021/07/31 06:46:42;;;;;;;9.05;4.30;;;18.60;75.00;;;;;;4998279;28;20109;-71
2021/07/31 06:49:08;;;;;;;9.40;4.70;;;18.80;75.10;;;;;;4998600;28;20084;-69
2021/07/31 06:51:34;;;;;;;10.13;4.53;;;18.80;75.00;;;;;;5011277;28;20045;-69
2021/07/31 06:54:01;;;;;;;10.80;4.30;;;18.50;74.80;;;;;;5006881;28;20052;-69
2021/07/31 06:56:27;;;;;;;11.00;5.20;;;18.60;74.80;;;;;;5011614;28;20122;-68
2021/07/31 06:58:53;;;;;;;11.15;4.85;;;18.50;74.80;;;;;;5001712;28;20129;-70
2021/07/31 07:01:18;;;;;;;9.20;4.90;;;18.60;75.10;;;;;;5002794;28;20117;-69
2021/07/31 07:03:47;;;;;;;11.80;4.90;;;18.60;75.30;;;;;;4996344;28;20065;-69
2021/07/31 07:06:13;;;;;;;14.43;5.65;;;18.60;75.50;;;;;;4999630;28;20142;-69
2021/07/31 07:08:38;;;;;;;11.77;5.85;;;18.50;75.60;;;;;;5020723;28;20117;-70
2021/07/31 07:11:05;;;;;;;11.27;6.50;;;18.50;75.70;;;;;;5017381;28;20068;-70
2021/07/31 07:13:31;;;;;;;12.13;6.43;;;18.40;75.80;;;;;;5001513;28;20042;-71
2021/07/31 07:15:57;;;;;;;17.13;5.57;;;18.20;76.60;;;;;;5001959;28;20046;-69
2021/07/31 07:18:23;;;;;;;12.00;6.40;;;18.40;75.70;;;;;;5002281;28;20030;-69
2021/07/31 07:20:48;;;;;;;11.48;5.88;;;18.50;75.20;;;;;;5010564;28;20038;-69
2021/07/31 07:23:17;;;;;;;12.38;5.53;;;18.50;75.20;;;;;;5009684;28;20140;-69
2021/07/31 07:25:43;;;;;;;9.52;5.80;;;18.70;75.30;;;;;;5006800;28;20061;-68
2021/07/31 07:28:10;;;;;;;11.90;6.40;;;19.00;75.20;;;;;;5003318;28;20069;-70
2021/07/31 07:30:36;;;;;;;10.18;5.68;;;18.80;74.00;;;;;;5006479;28;20061;-70
2021/07/31 07:33:03;;;;;;;10.23;6.15;;;18.80;74.00;;;;;;5013116;28;20417;-69
2021/07/31 07:35:29;;;;;;;12.35;6.47;;;18.90;74.00;;;;;;4996981;28;20057;-68
2021/07/31 07:37:54;;;;;;;12.73;6.13;;;18.90;74.00;;;;;;4995157;28;20065;-68
2021/07/31 07:40:21;;;;;;;9.60;5.38;;;18.90;74.00;;;;;;5004755;28;20465;-68
2021/07/31 07:42:46;;;;;;;10.10;5.50;;;19.00;73.80;;;;;;5001636;28;20492;-69
2021/07/31 07:45:12;;;;;;;9.15;5.80;;;19.20;73.50;;;;;;5006509;28;20061;-68
2021/07/31 07:47:38;;;;;;;10.38;6.03;;;19.30;73.00;;;;;;5008044;28;20116;-68
2021/07/31 07:50:04;;;;;;;9.65;5.93;;;19.10;73.10;;;;;;5001078;28;20485;-68
2021/07/31 07:52:30;;;;;;;11.85;6.13;;;19.10;73.80;;;;;;5012231;28;20033;-72
2021/07/31 07:54:56;;;;;;;8.85;4.97;;;19.10;73.20;;;;;;4997278;28;20042;-68
2021/07/31 07:57:22;;;;;;;10.73;5.45;;;19.20;72.90;;;;;;5004070;28;20477;-68
2021/07/31 07:59:47;;;;;;;10.45;4.95;;;19.20;73.00;;;;;;4997111;28;20038;-69
2021/07/31 08:02:15;;;;;;;8.85;4.80;;;19.10;73.00;;;;;;4998977;28;20022;-68
2021/07/31 08:04:41;;;;;;;7.93;4.38;;;19.40;73.50;;;;;;5010757;28;20031;-68
2021/07/31 08:07:07;;;;;;;7.60;4.40;;;19.60;72.10;;;;;;5000001;28;20052;-69
2021/07/31 08:09:35;;;;;;;8.88;4.18;;;19.70;70.60;;;;;;5005401;28;20073;-71
2021/07/31 08:12:00;;;;;;;8.75;4.55;;;19.60;71.10;;;;;;4997518;28;20045;-69
2021/07/31 08:14:26;;;;;;;13.45;4.30;;;19.60;71.50;;;;;;5002857;28;20045;-69
2021/07/31 08:16:52;;;;;;;10.50;4.30;;;19.70;70.50;;;;;;5002754;28;20034;-71
2021/07/31 08:19:18;;;;;;;9.52;4.03;;;19.70;70.40;;;;;;5007140;28;20092;-69
2021/07/31 08:21:43;;;;;;;7.63;4.00;;;19.70;70.40;;;;;;5005218;28;20038;-69
2021/07/31 08:24:09;;;;;;;8.00;4.00;;;19.50;71.10;;;;;;5000354;28;20484;-70
2021/07/31 08:26:34;;;;;;;8.23;4.18;;;19.60;70.50;;;;;;5005676;28;20030;-69
2021/07/31 08:29:00;;;;;;;8.68;4.50;;;19.60;71.00;;;;;;5009731;28;20041;-69
2021/07/31 08:31:26;;;;;;;7.40;3.97;;;19.60;71.70;;;;;;5006767;28;20042;-69
2021/07/31 08:33:51;;;;;;;6.90;3.95;;;19.50;71.20;;;;;;5007327;28;20034;-69
2021/07/31 08:36:17;;;;;;;6.75;3.78;;;19.60;70.30;;;;;;5001539;28;20061;-70
2021/07/31 08:38:43;;;;;;;11.35;4.53;;;19.50;70.50;;;;;;5016238;28;20037;-70
2021/07/31 08:41:08;;;;;;;8.75;4.20;;;19.40;70.10;;;;;;5002499;28;20504;-70
2021/07/31 08:43:34;;;;;;;7.50;4.00;;;19.30;71.10;;;;;;5004646;28;20466;-67
2021/07/31 08:46:05;;;;;;;10.30;4.22;;;19.40;71.50;;;;;;5018927;28;20447;-68
2021/07/31 08:48:32;;;;;;;6.88;3.78;;;19.50;70.80;;;;;;5015295;28;20030;-67
2021/07/31 08:51:00;;;;;;;7.68;3.90;;;19.70;70.90;;;;;;5005252;28;20050;-67
2021/07/31 08:53:30;;;;;;;8.70;4.15;;;20.10;69.70;;;;;;5001188;28;20042;-68
2021/07/31 08:56:00;;;;;;;8.38;3.75;;;19.90;69.00;;;;;;5014953;28;20466;-67
2021/07/31 08:58:27;;;;;;;4.78;2.88;;;20.10;69.70;;;;;;5013029;28;20116;-67
2021/07/31 09:00:54;;;;;;;7.75;3.42;;;20.30;68.80;;;;;;5004156;28;20503;-67
2021/07/31 09:03:21;;;;;;;7.75;3.85;;;20.40;68.40;;;;;;5006915;28;20072;-68
2021/07/31 09:05:48;;;;;;;5.93;3.60;;;20.40;68.10;;;;;;5003505;28;20362;-67
2021/07/31 09:08:14;;;;;;;6.90;3.67;;;20.60;67.70;;;;;;4999079;28;20118;-68
2021/07/31 09:10:41;;;;;;;5.60;3.25;;;20.60;67.10;;;;;;5004050;28;20130;-68
2021/07/31 09:13:08;;;;;;;7.88;3.85;;;20.50;66.40;;;;;;5002269;28;20041;-72
2021/07/31 09:15:41;;;;;;;8.50;4.15;;;20.30;66.80;;;;;;5004242;28;20042;-70
2021/07/31 09:18:25;;;;;;;6.22;3.70;;;20.30;67.20;;;;;;5006326;28;20030;-70
2021/07/31 09:21:05;;;;;;;5.88;3.83;;;20.50;66.70;;;;;;5011149;28;20040;-72
2021/07/31 09:23:41;;;;;;;8.20;3.78;;;20.60;67.30;;;;;;5028224;28;20133;-69
2021/07/31 09:26:07;;;;;;;9.05;3.65;;;20.50;66.00;;;;;;5031942;28;20477;-69
2021/07/31 09:28:38;;;;;;;6.20;3.45;;;20.40;66.00;;;;;;5028128;28;20076;-70
2021/07/31 09:31:04;;;;;;;7.13;3.92;;;20.50;65.10;;;;;;5029264;28;20187;-69
2021/07/31 09:33:29;;;;;;;6.03;3.88;;;20.20;66.20;;;;;;5025439;28;20117;-69
2021/07/31 09:36:04;;;;;;;7.50;3.75;;;20.40;65.50;;;;;;5029817;28;20037;-69
2021/07/31 09:38:37;;;;;;;6.80;3.50;;;20.30;65.00;;;;;;5023132;28;20526;-69
2021/07/31 09:41:22;;;;;;;8.15;4.32;;;20.40;65.80;;;;;;5032954;28;20504;-69
2021/07/31 09:44:06;;;;;;;7.07;4.07;;;20.60;65.50;;;;;;5032042;28;20038;-71
2021/07/31 09:46:34;;;;;;;6.32;3.65;;;21.00;65.50;;;;;;5027869;28;20064;-69
2021/07/31 09:49:01;;;;;;;7.07;3.58;;;21.30;63.90;;;;;;5031374;28;20047;-70
2021/07/31 09:51:44;;;;;;;7.00;3.60;;;21.30;63.10;;;;;;5029288;28;20401;-70
2021/07/31 09:54:12;;;;;;;7.00;3.30;;;21.10;63.40;;;;;;5031262;28;20053;-72
2021/07/31 09:56:43;;;;;;;6.18;3.25;;;21.30;63.20;;;;;;5025979;28;20033;-69
2021/07/31 09:59:11;;;;;;;10.13;3.10;;;21.50;61.30;;;;;;5026706;28;20038;-72
2021/07/31 10:01:44;;;;;;;6.75;3.20;;;21.50;62.10;;;;;;5023907;28;20041;-69
2021/07/31 10:04:10;;;;;;;6.50;2.92;;;21.40;61.60;;;;;;5028162;28;20130;-69
2021/07/31 10:06:37;;;;;;;6.18;2.90;;;21.40;62.10;;;;;;5019904;28;20076;-70
2021/07/31 10:09:04;;;;;;;6.63;3.08;;;21.40;62.00;;;;;;5025155;28;20040;-71
2021/07/31 10:11:33;;;;;;;6.97;3.22;;;21.00;62.90;;;;;;5022186;28;20065;-70
2021/07/31 10:13:59;;;;;;;7.25;3.60;;;20.90;63.80;;;;;;5024328;28;20033;-68
2021/07/31 10:16:25;;;;;;;7.00;3.28;;;20.60;64.80;;;;;;5026219;28;20465;-68
2021/07/31 10:19:08;;;;;;;4.93;3.10;;;20.60;64.40;;;;;;5026856;28;20040;-69
2021/07/31 10:21:58;;;;;;;6.60;3.40;;;20.60;65.10;;;;;;5030959;28;20422;-68
2021/07/31 10:24:25;;;;;;;8.38;3.72;;;20.50;65.80;;;;;;5015404;28;20397;-67
2021/07/31 10:27:16;;;;;;;5.93;3.55;;;20.60;64.70;;;;;;5028805;28;20469;-67
2021/07/31 10:29:46;;;;;;;6.80;3.17;;;20.90;65.50;;;;;;5029020;28;20041;-69
2021/07/31 10:32:21;;;;;;;7.80;3.33;;;21.10;64.40;;;;;;5026320;28;20069;-68
2021/07/31 10:34:53;;;;;;;6.88;2.92;;;21.60;64.10;;;;;;4999986;28;20056;-68
2021/07/31 10:37:28;;;;;;;6.53;3.40;;;21.50;60.90;;;;;;5003872;28;20041;-69
2021/07/31 10:40:04;;;;;;;5.60;3.00;;;21.40;62.30;;;;;;5003956;28;20049;-67
2021/07/31 10:42:52;;;;;;;6.00;2.75;;;21.60;61.80;;;;;;5010032;28;20062;-68
2021/07/31 10:45:23;;;;;;;5.47;3.00;;;21.50;62.00;;;;;;4999324;28;20038;-69
2021/07/31 10:47:54;;;;;;;5.57;2.97;;;21.50;61.80;;;;;;5004357;28;20065;-69
2021/07/31 10:50:25;;;;;;;4.35;2.83;;;21.60;61.20;;;;;;5007085;28;20046;-71
2021/07/31 10:53:01;;;;;;;6.22;2.92;;;21.70;61.20;;;;;;5006030;28;20030;-69
2021/07/31 10:55:36;;;;;;;4.68;2.50;;;21.70;60.40;;;;;;5001855;28;20038;-70
2021/07/31 10:58:01;;;;;;;6.38;2.75;;;22.20;60.10;;;;;;5021582;28;20034;-70
2021/07/31 11:00:37;;;;;;;5.80;2.85;;;22.20;57.90;;;;;;5001843;28;20034;-69
2021/07/31 11:03:04;;;;;;;6.22;3.00;;;22.00;59.90;;;;;;4998602;28;20039;-69
2021/07/31 11:05:51;;;;;;;8.23;2.90;;;21.70;60.60;;;;;;4997726;28;20490;-69
2021/07/31 11:08:17;;;;;;;4.72;2.45;;;21.70;60.10;;;;;;5001508;28;20034;-69
2021/07/31 11:10:51;;;;;;;5.22;2.60;;;21.80;60.70;;;;;;4997262;28;20122;-72
2021/07/31 11:13:16;;;;;;;4.45;2.45;;;22.10;59.70;;;;;;4997405;28;20117;-69
2021/07/31 11:16:00;;;;;;;6.15;3.00;;;22.90;57.90;;;;;;4995850;28;20138;-69
2021/07/31 11:18:43;;;;;;;6.28;2.45;;;23.30;56.40;;;;;;5001571;28;20045;-69
2021/07/31 11:21:20;;;;;;;5.40;2.80;;;23.50;55.90;;;;;;5001020;28;20119;-68
2021/07/31 11:24:00;;;;;;;4.85;2.30;;;22.80;55.70;;;;;;4999059;28;20405;-69
2021/07/31 11:26:32;;;;;;;4.95;2.30;;;22.60;56.70;;;;;;4993418;28;20035;-69
2021/07/31 11:28:58;;;;;;;5.30;2.50;;;23.00;57.60;;;;;;4995582;28;20031;-69
2021/07/31 11:31:24;;;;;;;4.40;2.50;;;23.20;56.20;;;;;;5003399;28;20429;-71
2021/07/31 11:34:01;;;;;;;3.58;2.10;;;23.50;54.90;;;;;;5003051;28;20473;-71
2021/07/31 11:36:28;;;;;;;8.65;2.70;;;23.30;54.10;;;;;;5019299;28;20079;-68
2021/07/31 11:38:54;;;;;;;5.78;2.60;;;23.10;56.00;;;;;;5025260;28;20045;-70
2021/07/31 11:41:20;;;;;;;5.15;2.80;;;23.00;55.60;;;;;;5021092;28;20052;-70
2021/07/31 11:43:48;;;;;;;5.57;2.70;;;23.30;56.10;;;;;;5028622;28;20036;-69
2021/07/31 11:46:28;;;;;;;6.22;2.42;;;23.10;55.50;;;;;;5024748;28;20395;-70
2021/07/31 11:48:55;;;;;;;4.70;2.20;;;23.30;55.60;;;;;;5026726;28;20041;-70
2021/07/31 11:51:21;;;;;;;4.43;2.10;;;23.90;53.50;;;;;;5027878;28;20064;-72
2021/07/31 11:53:46;;;;;;;3.13;2.03;;;24.30;52.70;;;;;;5026305;28;20025;-68
2021/07/31 11:56:16;;;;;;;4.28;2.20;;;23.90;51.70;;;;;;5022473;28;20068;-68
2021/07/31 11:58:46;;;;;;;5.93;2.63;;;23.50;53.30;;;;;;5021765;28;20029;-69
2021/07/31 12:01:13;;;;;;;6.05;2.78;;;22.70;54.40;;;;;;5022222;28;20273;-70
2021/07/31 12:03:42;;;;;;;4.13;2.10;;;22.30;56.40;;;;;;5021695;28;20409;-72
2021/07/31 12:06:33;;;;;;;3.55;2.40;;;22.10;58.10;;;;;;5021632;28;20025;-69
2021/07/31 12:09:07;;;;;;;4.03;2.30;;;22.10;57.80;;;;;;5021549;28;20048;-69
2021/07/31 12:11:38;;;;;;;7.47;3.08;;;22.30;57.30;;;;;;5019351;28;20067;-69
2021/07/31 12:14:41;;;;;;;7.38;3.08;;;22.30;57.50;;;;;;5018541;28;20394;-69
2021/07/31 12:17:24;;;;;;;5.65;2.78;;;22.50;57.10;;;;;;5019693;28;20045;-69
2021/07/31 12:19:54;;;;;;;6.60;2.70;;;22.60;55.60;;;;;;5023830;28;20091;-68
2021/07/31 12:22:23;;;;;;;4.38;2.28;;;22.50;56.40;;;;;;5021327;28;20088;-69
2021/07/31 12:25:12;;;;;;;4.05;2.20;;;22.50;56.50;;;;;;5022429;28;20069;-69
2021/07/31 12:28:02;;;;;;;6.05;2.30;;;22.40;55.50;;;;;;5024912;28;20038;-68
2021/07/31 12:30:39;;;;;;;5.03;2.83;;;22.20;56.30;;;;;;5027174;28;20073;-69
2021/07/31 12:33:05;;;;;;;6.72;2.63;;;22.20;56.80;;;;;;5024524;28;20132;-69
2021/07/31 12:35:38;;;;;;;6.18;2.55;;;22.20;56.60;;;;;;5023572;28;20141;-69
2021/07/31 12:38:09;;;;;;;5.50;2.65;;;22.00;56.00;;;;;;5017501;28;20485;-70
2021/07/31 12:40:36;;;;;;;4.15;2.10;;;22.20;57.00;;;;;;5019784;28;20081;-69
2021/07/31 12:43:06;;;;;;;4.15;2.47;;;22.60;56.60;;;;;;5017957;28;20050;-72